Milledgeville, IL (61051)

3:14 AM CDT on July 31, 2016 (GMT -0500)
SaukValleyWeather.com (2 Miles N Sterling) | | Change Station

Elev 666 ft 41.82 °N, 89.67 °W | Updated 19 seconds ago

Overcast
Overcast
64.5 °F
Feels Like 64.5 °F
N
0.0
Wind Variable Wind from ENE
Gusts 0.0 mph

Today
High -- | Low -- °F
--% Chance of Precip.
Yesterday
High -- | Low -- °F
Precip. -- in
Pressure 30.06 in
Visibility 9.0 miles
Clouds Overcast 12000 ft
Dew Point 63 °F
Humidity 96%
Rainfall 0.00 in
Snow Depth Not available.
5:52 AM 8:18 PM
Waning Crescent, 8% visible
METAR KSQI 310756Z 00000KT 9SM OVC120 18/18 A3002 RMK AO2 SLP177 T01830178
Pressure 30.06 in
Visibility 9.0 miles
Clouds Overcast 12000 ft
Dew Point 63 °F
Humidity 96%
Rainfall 0.00 in
Snow Depth Not available.
5:52 AM 8:18 PM
Waning Crescent, 8% visible
METAR KSQI 310756Z 00000KT 9SM OVC120 18/18 A3002 RMK AO2 SLP177 T01830178

10-Day Weather Forecast

Almanac

Astronomy

Jul. 31, 2016 Rise Set
Actual Time
Civil Twilight
Nautical Twilight
Astronomical Twilight
Moon
Length of Visible Light
Length of Day
Tomorrow will be .
, % of the Moon is Illuminated

Today's Extremes

State Highs State Lows

Community

WunderPhotos

Upload Photos

1,928,768 photos uploaded!

WunderBlog® & News

Nearby

Air Quality

  Air Quality AQ Index Pollutant
Not available.

Snow Depth

Station Depth Elevation

Earthquake Activity

City Distance Mag. Time & Date
Minimum magnitude displayed is 2.5.

Coastal Water Temperatures

Place Temperature

Stations

Nearby Weather Stations

Station Location Temp. Windchill Dew Point Humidity Wind Precip. Elev Updated Type
                   

Watches & Warnings

There are currently no watches in effect.